Time;durP1;ratioP1;P1;durP2;ratioP2;P2;SDS_P1;SDS_P2;PMS_P1;PMS_P2;Temp;Humidity;BMP_temperature;BMP_pressure;BME280_temperature;BME280_humidity;BME280_pressure;Samples;Min_cycle;Max_cycle;Signal;HPM_P1;HPM_P2
2022/08/13 00:01:40;;;;;;;3.20;3.10;;;;;;;21.08;62.21;101474.91;5226275;28;20028;-59
2022/08/13 00:04:14;;;;;;;5.15;3.47;;;;;;;21.03;62.27;101469.56;5225753;28;20024;-59
2022/08/13 00:07:18;;;;;;;3.45;3.25;;;;;;;20.94;62.63;101472.25;5226066;28;20396;-59
2022/08/13 00:09:43;;;;;;;6.18;4.70;;;;;;;20.85;62.93;101474.91;5222614;28;20024;-58
2022/08/13 00:15:21;;;;;;;4.15;3.85;;;;;;;20.74;63.59;101468.03;5225773;28;20063;-58
2022/08/13 00:17:51;;;;;;;3.92;3.63;;;;;;;20.68;63.76;101463.78;5225345;28;20025;-58
2022/08/13 00:20:25;;;;;;;6.50;2.95;;;;;;;20.65;64.14;101472.63;5225533;28;20349;-58
2022/08/13 00:22:58;;;;;;;3.03;2.92;;;;;;;20.51;64.55;101463.59;5225536;28;20242;-58
2022/08/13 00:25:29;;;;;;;3.42;3.20;;;;;;;20.50;64.84;101478.47;5207092;28;20048;-58
2022/08/13 00:28:00;;;;;;;5.80;4.50;;;;;;;20.40;65.01;101475.94;5225718;28;20040;-58
2022/08/13 00:30:33;;;;;;;3.97;3.67;;;;;;;20.33;65.86;101480.97;5207831;28;20029;-59
2022/08/13 00:33:12;;;;;;;4.43;4.13;;;;;;;20.25;66.24;101488.00;5225509;28;20013;-58
2022/08/13 00:35:44;;;;;;;5.00;4.50;;;;;;;20.15;66.74;101483.56;5225512;28;20104;-59
2022/08/13 00:38:18;;;;;;;3.88;3.63;;;;;;;20.04;67.33;101475.81;5225360;28;20017;-59
2022/08/13 00:40:57;;;;;;;4.18;3.90;;;;;;;19.88;67.88;101478.06;5224971;28;20029;-59
2022/08/13 00:43:33;;;;;;;5.07;4.20;;;;;;;19.81;68.59;101474.91;5206867;28;20021;-59
2022/08/13 00:46:04;;;;;;;3.53;3.42;;;;;;;19.72;69.11;101477.53;5222531;28;20032;-58
2022/08/13 00:48:43;;;;;;;4.30;3.97;;;;;;;19.67;69.48;101469.38;5224993;28;20017;-59
2022/08/13 00:51:16;;;;;;;4.35;4.10;;;;;;;19.61;69.91;101464.31;5224657;28;20032;-59
2022/08/13 00:53:46;;;;;;;4.25;4.05;;;;;;;19.59;70.25;101477.50;5219923;28;20451;-59
2022/08/13 00:56:22;;;;;;;13.80;4.65;;;;;;;19.58;70.39;101482.19;5206642;28;20082;-59
2022/08/13 00:58:53;;;;;;;4.93;4.53;;;;;;;19.52;70.63;101477.91;5224305;28;20021;-59
2022/08/13 01:01:25;;;;;;;5.38;4.97;;;;;;;19.52;70.82;101481.44;5224500;28;20021;-59
2022/08/13 01:03:55;;;;;;;4.82;4.53;;;;;;;19.47;71.61;101484.25;5189597;28;20467;-59
2022/08/13 01:06:26;;;;;;;4.13;3.83;;;;;;;19.45;71.42;101480.97;5224448;28;20115;-58
2022/08/13 01:08:56;;;;;;;4.90;4.53;;;;;;;19.46;71.56;101482.59;5224298;28;20032;-59
2022/08/13 01:11:27;;;;;;;4.63;4.32;;;;;;;19.38;72.18;101483.28;5224499;28;20021;-59
2022/08/13 01:14:00;;;;;;;4.65;4.35;;;;;;;19.38;72.59;101475.06;5223712;28;20110;-59
2022/08/13 01:16:36;;;;;;;4.85;4.55;;;;;;;19.18;72.54;101457.06;5224356;28;20017;-59
2022/08/13 01:19:08;;;;;;;5.07;4.68;;;;;;;19.34;72.74;101484.22;5224348;28;20102;-59
2022/08/13 01:21:41;;;;;;;5.43;4.95;;;;;;;19.31;73.20;101482.88;5224231;28;20044;-59
2022/08/13 01:24:12;;;;;;;12.43;5.15;;;;;;;19.27;73.63;101489.25;5223537;28;20021;-59
2022/08/13 01:26:43;;;;;;;5.43;5.13;;;;;;;19.19;73.75;101490.75;5205652;28;20025;-59
2022/08/13 01:29:15;;;;;;;4.28;3.95;;;;;;;19.16;74.09;101492.16;5223854;28;20036;-59
2022/08/13 01:31:47;;;;;;;5.22;4.93;;;;;;;19.13;74.36;101483.72;5223865;28;20036;-59
2022/08/13 01:34:19;;;;;;;4.97;4.68;;;;;;;19.13;74.75;101484.53;5223564;28;20056;-59
2022/08/13 01:36:49;;;;;;;12.80;5.03;;;;;;;19.09;75.10;101480.75;5223558;28;20020;-58
2022/08/13 01:39:20;;;;;;;7.38;4.28;;;;;;;19.10;75.39;101489.78;5223389;28;20282;-59
2022/08/13 01:41:50;;;;;;;5.47;4.90;;;;;;;19.09;75.45;101491.72;5223722;28;20017;-59
2022/08/13 01:44:23;;;;;;;5.25;4.85;;;;;;;19.07;75.92;101493.91;5223162;28;20099;-59
2022/08/13 01:52:40;;;;;;;5.55;5.15;;;;;;;19.01;76.87;101486.13;5224040;28;20043;-59
2022/08/13 01:55:12;;;;;;;5.20;4.90;;;;;;;18.99;77.00;101482.84;5205743;28;20542;-59
2022/08/13 01:57:44;;;;;;;4.78;4.50;;;;;;;19.01;77.09;101497.06;5223330;28;20040;-59
2022/08/13 02:00:21;;;;;;;6.22;5.30;;;;;;;18.98;77.25;101492.19;5223616;28;20439;-59
2022/08/13 02:02:51;;;;;;;5.13;4.82;;;;;;;18.97;77.48;101490.53;5223779;28;20039;-59
2022/08/13 02:05:23;;;;;;;5.07;4.78;;;;;;;18.93;77.54;101486.78;5223277;28;20100;-59
2022/08/13 02:07:54;;;;;;;6.68;6.07;;;;;;;18.94;77.83;101491.13;5223339;28;20492;-59
2022/08/13 02:10:24;;;;;;;5.95;5.65;;;;;;;18.89;78.01;101483.81;5223340;28;20147;-58
2022/08/13 02:12:55;;;;;;;5.55;5.15;;;;;;;18.90;78.26;101490.91;5223535;28;20028;-59
2022/08/13 02:15:26;;;;;;;6.07;5.68;;;;;;;18.88;78.65;101488.47;5222996;28;20029;-59
2022/08/13 02:17:57;;;;;;;6.57;6.03;;;;;;;18.84;78.82;101487.44;5223379;28;20458;-59
2022/08/13 02:20:32;;;;;;;5.68;5.38;;;;;;;18.85;79.05;101490.97;5223188;28;20032;-58
2022/08/13 02:23:06;;;;;;;5.80;5.40;;;;;;;18.80;79.16;101485.56;5222968;28;20029;-59
2022/08/13 02:25:36;;;;;;;6.75;6.25;;;;;;;18.74;79.49;101490.34;5222608;28;20480;-59
2022/08/13 02:28:09;;;;;;;6.22;5.85;;;;;;;18.66;79.86;101488.25;5223167;28;20029;-59
2022/08/13 02:30:42;;;;;;;6.35;5.78;;;;;;;18.57;80.53;101487.25;5223060;28;20029;-59
2022/08/13 02:33:13;;;;;;;6.70;6.10;;;;;;;18.49;80.87;101490.63;5222581;28;20132;-59
2022/08/13 02:35:45;;;;;;;7.25;6.60;;;;;;;18.41;81.33;101478.44;5222368;28;20024;-59
2022/08/13 02:38:16;;;;;;;6.03;5.60;;;;;;;18.41;81.72;101492.13;5222437;28;20096;-59
2022/08/13 02:43:35;;;;;;;6.05;5.68;;;;;;;18.41;82.21;101494.03;5221972;28;20028;-59
2022/08/13 02:46:07;;;;;;;8.90;5.70;;;;;;;18.42;82.59;101482.81;5222425;28;20329;-59
2022/08/13 02:48:37;;;;;;;6.43;6.03;;;;;;;18.30;83.27;101476.94;5222435;28;20029;-59
2022/08/13 02:51:11;;;;;;;6.60;6.10;;;;;;;18.33;83.39;101487.28;5222495;28;20109;-59
2022/08/13 02:53:42;;;;;;;7.07;6.68;;;;;;;18.35;83.56;101492.47;5221987;28;20031;-59
2022/08/13 02:56:12;;;;;;;6.85;6.25;;;;;;;18.31;83.90;101485.94;5222464;28;20469;-59
2022/08/13 02:58:45;;;;;;;7.72;6.88;;;;;;;18.18;84.03;101480.09;5222631;28;20021;-59
2022/08/13 03:01:15;;;;;;;7.25;6.55;;;;;;;18.13;85.00;101487.53;5222274;28;20060;-59
2022/08/13 03:03:46;;;;;;;8.60;7.72;;;;;;;17.92;85.24;101464.25;5251416;22;20658;-78
2022/08/13 03:06:19;;;;;;;7.30;6.57;;;;;;;17.86;85.60;101478.00;5243199;28;20047;-78
2022/08/13 03:08:52;;;;;;;9.45;8.65;;;;;;;17.97;86.19;101491.53;5220212;28;20039;-78
2022/08/13 03:11:23;;;;;;;9.70;7.00;;;;;;;17.75;86.57;101454.63;5214895;28;20028;-78
2022/08/13 03:14:01;;;;;;;6.82;6.43;;;;;;;17.94;86.94;101494.84;5213775;28;20474;-78
2022/08/13 03:16:32;;;;;;;7.82;7.28;;;;;;;17.95;87.57;101501.94;5214502;28;20023;-78
2022/08/13 03:19:03;;;;;;;7.90;7.43;;;;;;;17.94;88.43;101492.13;5249036;28;20032;-78
2022/08/13 03:21:36;;;;;;;6.80;6.20;;;;;;;17.98;88.47;101490.44;5252221;28;20289;-78
2022/08/13 03:24:18;;;;;;;8.50;7.90;;;;;;;17.92;89.30;101486.13;5250710;28;20016;-78
2022/08/13 03:26:50;;;;;;;8.13;7.38;;;;;;;17.91;89.95;101500.88;5252342;28;20028;-78
2022/08/13 03:29:23;;;;;;;7.13;6.70;;;;;;;17.82;90.68;101498.00;5233498;28;20474;-78
2022/08/13 03:31:53;;;;;;;7.65;6.95;;;;;;;17.48;91.49;101457.03;5234046;28;20025;-78
2022/08/13 03:34:24;;;;;;;7.60;7.00;;;;;;;17.55;92.25;101472.00;5251422;28;20097;-78
2022/08/13 03:36:54;;;;;;;7.30;6.90;;;;;;;17.45;93.49;101472.09;5251918;28;20103;-78
2022/08/13 03:39:25;;;;;;;7.72;7.32;;;;;;;17.66;94.35;101496.50;5251059;28;20138;-76
2022/08/13 03:41:57;;;;;;;9.43;8.50;;;;;;;17.57;95.85;101484.56;5232904;28;20023;-77
2022/08/13 03:44:28;;;;;;;8.80;8.18;;;;;;;17.57;96.57;101490.00;5232334;28;20025;-77
2022/08/13 03:46:59;;;;;;;9.88;8.88;;;;;;;17.54;97.38;101497.69;5251431;28;20021;-77
2022/08/13 03:49:31;;;;;;;9.52;8.90;;;;;;;17.49;98.62;101496.91;5250715;28;20028;-77
2022/08/13 03:52:01;;;;;;;9.57;8.35;;;;;;;17.32;99.22;101475.50;5250619;28;20021;-77
2022/08/13 03:54:32;;;;;;;9.00;8.20;;;;;;;17.33;100.00;101488.00;5250787;28;20032;-78
2022/08/13 03:57:02;;;;;;;9.82;8.98;;;;;;;17.34;100.00;101508.75;5252398;28;20017;-78
2022/08/13 03:59:33;;;;;;;7.80;7.30;;;;;;;17.27;100.00;101512.94;5252319;28;20021;-78
2022/08/13 04:02:03;;;;;;;9.63;6.97;;;;;;;17.12;100.00;101490.09;5251888;28;20043;-78
2022/08/13 04:04:34;;;;;;;9.55;8.95;;;;;;;17.21;100.00;101509.41;5252051;28;20037;-78
2022/08/13 04:07:04;;;;;;;8.43;7.85;;;;;;;17.02;100.00;101484.72;5252110;28;20020;-78
2022/08/13 04:09:35;;;;;;;8.35;7.75;;;;;;;17.11;100.00;101499.38;5234196;28;20028;-78
2022/08/13 04:12:09;;;;;;;11.20;10.10;;;;;;;17.18;100.00;101496.34;5252686;28;20038;-79
2022/08/13 04:14:44;;;;;;;8.80;8.25;;;;;;;17.12;100.00;101506.47;5251459;28;20402;-79
2022/08/13 04:17:36;;;;;;;8.77;8.27;;;;;;;17.09;100.00;101511.69;5252575;28;20532;-78
2022/08/13 04:20:09;;;;;;;9.60;9.00;;;;;;;16.99;100.00;101500.84;5252356;28;20340;-79
2022/08/13 04:22:39;;;;;;;9.82;8.88;;;;;;;16.92;100.00;101505.81;5255528;28;20074;-79
2022/08/13 04:25:11;;;;;;;11.15;9.85;;;;;;;16.95;100.00;101514.25;5237240;28;20025;-78
2022/08/13 04:27:41;;;;;;;8.50;7.85;;;;;;;16.78;100.00;101489.22;5256385;28;20074;-78
2022/08/13 04:30:14;;;;;;;8.27;7.68;;;;;;;16.90;100.00;101499.81;5259689;28;20033;-78
2022/08/13 04:32:45;;;;;;;10.43;8.98;;;;;;;16.94;100.00;101509.88;5257463;28;20036;-78
2022/08/13 04:35:15;;;;;;;10.80;9.77;;;;;;;16.94;100.00;101509.06;5255929;28;20292;-78
2022/08/13 04:37:46;;;;;;;10.85;10.13;;;;;;;16.81;100.00;101500.41;5242741;28;20443;-78
2022/08/13 04:40:18;;;;;;;8.80;7.97;;;;;;;16.87;100.00;101509.38;5230225;28;20032;-78
2022/08/13 04:42:53;;;;;;;9.38;8.68;;;;;;;16.86;100.00;101502.28;5220377;28;20039;-78
2022/08/13 04:45:27;;;;;;;10.18;9.55;;;;;;;16.82;100.00;101495.75;5239766;28;20052;-79
2022/08/13 04:48:00;;;;;;;8.27;7.78;;;;;;;16.87;100.00;101501.19;5242315;28;20020;-79
2022/08/13 04:50:34;;;;;;;9.55;8.82;;;;;;;17.04;100.00;101515.25;5261307;28;20595;-79
2022/08/13 04:53:07;;;;;;;9.15;8.52;;;;;;;17.11;100.00;101517.66;5244133;28;20024;-79
2022/08/13 04:55:38;;;;;;;11.48;10.32;;;;;;;17.21;100.00;101526.63;5261800;28;20024;-79
2022/08/13 04:58:08;;;;;;;7.85;7.45;;;;;;;17.14;100.00;101530.75;5262308;28;20021;-79
2022/08/13 05:00:39;;;;;;;9.40;8.77;;;;;;;16.91;100.00;101466.78;5244151;28;20032;-79
2022/08/13 05:03:17;;;;;;;10.52;9.85;;;;;;;17.12;100.00;101511.94;5261688;28;20032;-79
2022/08/13 05:05:49;;;;;;;9.13;8.52;;;;;;;17.26;100.00;101516.75;5222368;28;20021;-79
2022/08/13 05:08:21;;;;;;;9.30;8.57;;;;;;;17.18;100.00;101512.72;5241341;28;20021;-79
2022/08/13 05:10:51;;;;;;;10.35;8.20;;;;;;;17.26;100.00;101524.94;5222808;28;20029;-79
2022/08/13 05:13:24;;;;;;;8.68;7.75;;;;;;;17.36;100.00;101531.13;5240954;28;20040;-79
2022/08/13 05:15:59;;;;;;;8.45;7.95;;;;;;;17.14;100.00;101498.00;5222792;28;20028;-80
2022/08/13 05:18:32;;;;;;;9.32;8.27;;;;;;;17.35;100.00;101515.84;5223824;28;20009;-79
2022/08/13 05:21:05;;;;;;;9.23;8.60;;;;;;;17.41;100.00;101520.16;5222892;28;20032;-80
2022/08/13 05:23:38;;;;;;;9.15;8.52;;;;;;;17.58;100.00;101546.28;5223434;28;20191;-79
2022/08/13 05:26:10;;;;;;;9.50;8.70;;;;;;;17.55;100.00;101523.88;5223818;28;20173;-80
2022/08/13 05:28:41;;;;;;;8.52;7.82;;;;;;;17.23;100.00;101458.09;5241891;28;20029;-80
2022/08/13 05:31:11;;;;;;;8.23;7.35;;;;;;;17.71;100.00;101540.97;5223825;28;20040;-80
2022/08/13 05:33:41;;;;;;;9.27;8.38;;;;;;;17.48;100.00;101487.91;5239478;28;20053;-80
2022/08/13 05:36:13;;;;;;;9.02;8.52;;;;;;;17.80;100.00;101544.72;5241049;28;20244;-80
2022/08/13 05:38:48;;;;;;;12.77;8.48;;;;;;;17.47;100.00;101475.34;5223451;28;20035;-80
2022/08/13 05:41:19;;;;;;;7.85;7.25;;;;;;;17.33;100.00;101444.34;5240540;28;20021;-80
2022/08/13 05:43:51;;;;;;;7.90;7.50;;;;;;;17.68;100.00;101481.44;5222305;28;20032;-80
2022/08/13 05:46:24;;;;;;;8.23;7.57;;;;;;;17.77;100.00;101482.47;5241242;28;20025;-79
2022/08/13 05:48:57;;;;;;;8.07;7.57;;;;;;;18.02;100.00;101518.81;5222598;28;20025;-79
2022/08/13 05:51:31;;;;;;;9.45;8.57;;;;;;;18.13;100.00;101525.81;5223328;28;20028;-80
2022/08/13 05:54:02;;;;;;;7.50;6.88;;;;;;;18.15;100.00;101515.41;5240156;28;20057;-80
2022/08/13 05:56:36;;;;;;;10.15;9.35;;;;;;;18.16;100.00;101506.91;5236690;28;20039;-79
2022/08/13 06:03:22;;;;;;;8.70;8.10;;;;;;;18.40;100.00;101539.72;5219644;28;20033;-79
2022/08/13 06:04:50;;;;;;;8.07;7.47;;;;;;;18.47;100.00;101520.22;5246808;28;20047;-80
2022/08/13 06:07:22;;;;;;;8.48;7.85;;;;;;;18.52;100.00;101517.41;5226070;28;20021;-81
2022/08/13 06:09:52;;;;;;;8.27;7.70;;;;;;;18.64;100.00;101523.28;5221699;28;20036;-80
2022/08/13 06:12:23;;;;;;;9.73;9.02;;;;;;;18.75;100.00;101535.75;5240789;28;20021;-80
2022/08/13 06:14:56;;;;;;;8.88;8.18;;;;;;;18.81;100.00;101531.81;5221421;28;20147;-80
2022/08/13 06:17:27;;;;;;;7.70;7.13;;;;;;;18.72;100.00;101511.72;5219466;28;20025;-79
2022/08/13 06:20:00;;;;;;;8.45;8.00;;;;;;;18.82;100.00;101511.53;5237395;28;20031;-79
2022/08/13 06:22:33;;;;;;;11.30;7.47;;;;;;;18.95;100.00;101525.59;5237451;28;20024;-79
2022/08/13 06:25:06;;;;;;;8.20;7.70;;;;;;;19.00;100.00;101528.28;5236112;28;20383;-79
2022/08/13 06:27:36;;;;;;;7.53;7.03;;;;;;;19.13;100.00;101536.53;5219768;28;20025;-79
2022/08/13 06:30:08;;;;;;;6.85;6.45;;;;;;;19.16;100.00;101535.13;5238185;28;20126;-79
2022/08/13 06:32:41;;;;;;;9.10;8.18;;;;;;;19.10;100.00;101528.09;5237997;28;20189;-79
2022/08/13 06:35:11;;;;;;;8.35;7.55;;;;;;;19.27;100.00;101531.16;5236428;28;20029;-79
2022/08/13 06:37:42;;;;;;;8.82;8.02;;;;;;;19.33;100.00;101529.97;5219478;28;20278;-79
2022/08/13 06:40:15;;;;;;;7.65;7.20;;;;;;;19.43;100.00;101529.78;5238288;28;20507;-79
2022/08/13 06:42:45;;;;;;;7.07;6.57;;;;;;;19.47;100.00;101521.78;5235146;28;20032;-79
2022/08/13 06:45:19;;;;;;;14.00;8.30;;;;;;;19.46;100.00;101501.78;5237731;28;20021;-79
2022/08/13 06:47:50;;;;;;;8.68;8.05;;;;;;;19.52;100.00;101499.81;5239345;28;20024;-80
2022/08/13 06:50:21;;;;;;;9.88;9.18;;;;;;;19.43;99.92;101458.56;5241855;28;20031;-79
2022/08/13 06:52:51;;;;;;;11.40;7.82;;;;;;;19.99;99.02;101525.25;5230800;28;20017;-79
2022/08/13 06:55:22;;;;;;;8.15;7.53;;;;;;;20.02;98.25;101517.25;5223952;28;20032;-79
2022/08/13 06:57:53;;;;;;;22.20;9.27;;;;;;;20.18;97.82;101537.78;5219712;28;20025;-80
2022/08/13 07:00:25;;;;;;;7.70;7.13;;;;;;;20.33;97.61;101533.09;5240115;28;20032;-80
2022/08/13 07:02:58;;;;;;;7.28;6.85;;;;;;;20.44;97.58;101521.66;5218380;28;20021;-78
2022/08/13 07:05:35;;;;;;;7.85;7.30;;;;;;;20.59;97.55;101519.69;5235176;28;20029;-78
2022/08/13 07:08:08;;;;;;;9.10;8.20;;;;;;;20.62;95.41;101503.44;5217266;28;20097;-78
2022/08/13 07:10:44;;;;;;;11.15;7.93;;;;;;;20.84;95.71;101516.38;5236277;28;20067;-78
2022/08/13 07:13:15;;;;;;;23.52;8.30;;;;;;;21.05;94.76;101511.25;5235942;28;20016;-79
2022/08/13 07:15:48;;;;;;;6.53;6.13;;;;;;;21.29;93.71;101513.75;5217134;28;20474;-79
2022/08/13 07:18:19;;;;;;;8.55;7.95;;;;;;;21.77;92.40;101547.69;5236473;28;20025;-79
2022/08/13 07:20:49;;;;;;;7.95;6.88;;;;;;;22.05;91.43;101509.81;5240446;28;20055;-79
2022/08/13 07:23:19;;;;;;;10.30;6.85;;;;;;;22.40;90.91;101505.25;5221421;28;20052;-79
2022/08/13 07:25:51;;;;;;;7.63;6.95;;;;;;;22.68;90.21;101500.28;5248251;28;20028;-80
2022/08/13 07:28:23;;;;;;;6.65;6.32;;;;;;;22.97;88.29;101494.19;5261661;28;20025;-80
2022/08/13 07:30:55;;;;;;;8.05;7.45;;;;;;;23.29;84.34;101490.09;5245813;28;20016;-80
2022/08/13 07:33:27;;;;;;;7.45;6.68;;;;;;;23.85;82.14;101524.06;5243757;28;20085;-80
2022/08/13 07:36:03;;;;;;;9.27;7.53;;;;;;;24.14;80.96;101535.16;5264278;28;20016;-81
2022/08/13 07:38:34;;;;;;;15.98;8.05;;;;;;;24.35;77.82;101495.78;5260247;28;20021;-81
2022/08/13 07:41:05;;;;;;;8.27;7.28;;;;;;;24.76;77.94;101511.59;5258016;28;20386;-80
2022/08/13 07:43:36;;;;;;;12.25;5.55;;;;;;;25.17;78.12;101527.38;5236986;28;20021;-80
2022/08/13 07:46:12;;;;;;;9.20;4.47;;;;;;;25.49;77.21;101526.59;5236001;28;20031;-80
2022/08/13 07:48:49;;;;;;;5.15;4.78;;;;;;;25.86;74.53;101529.50;5254810;28;20563;-80
2022/08/13 07:51:21;;;;;;;4.22;4.03;;;;;;;26.24;73.71;101529.19;5255630;28;20032;-80
2022/08/13 07:53:54;;;;;;;5.47;4.00;;;;;;;26.52;70.04;101518.25;5254546;28;20566;-80
2022/08/13 07:56:28;;;;;;;4.95;4.53;;;;;;;26.80;68.56;101524.66;5256905;28;20471;-80
2022/08/13 07:59:04;;;;;;;3.90;3.70;;;;;;;27.05;67.71;101522.66;5242498;28;20024;-80
2022/08/13 08:01:47;;;;;;;9.27;4.70;;;;;;;27.19;64.95;101525.00;5259255;28;20054;-80
2022/08/13 08:04:19;;;;;;;4.10;3.88;;;;;;;27.42;64.03;101526.09;5259452;28;20040;-80
2022/08/13 08:06:50;;;;;;;3.15;3.00;;;;;;;27.47;63.65;101500.84;5242584;28;20024;-81
2022/08/13 08:09:26;;;;;;;7.28;3.10;;;;;;;27.80;62.71;101500.56;5240825;28;20020;-81
2022/08/13 08:14:51;;;;;;;2.80;2.70;;;;;;;28.02;61.35;101521.31;5255779;28;20052;-80
2022/08/13 08:17:26;;;;;;;5.25;3.13;;;;;;;28.08;63.49;101505.19;5257757;28;20588;-78
2022/08/13 08:19:57;;;;;;;6.82;3.65;;;;;;;28.27;60.43;101518.41;5256906;28;20031;-79
2022/08/13 08:22:28;;;;;;;5.53;3.15;;;;;;;28.39;61.39;101515.50;5256240;28;20455;-78
2022/08/13 08:24:59;;;;;;;5.25;3.22;;;;;;;28.43;58.32;101516.41;5254736;28;20032;-79
2022/08/13 08:27:32;;;;;;;3.03;2.83;;;;;;;28.42;58.13;101520.34;5255018;28;20074;-78
2022/08/13 08:30:03;;;;;;;3.05;2.53;;;;;;;28.46;59.17;101507.34;5255481;28;20327;-79
2022/08/13 08:32:35;;;;;;;3.22;3.05;;;;;;;28.60;57.98;101510.44;5238634;28;20021;-78
2022/08/13 08:35:07;;;;;;;3.60;2.53;;;;;;;28.78;58.89;101500.53;5237260;28;20024;-78
2022/08/13 08:43:17;;;;;;;2.90;2.80;;;;;;;29.12;58.70;101498.06;5256814;28;20039;-78
2022/08/13 08:45:48;;;;;;;3.33;3.03;;;;;;;29.40;57.21;101512.56;5256602;28;20025;-78
2022/08/13 08:48:19;;;;;;;3.47;3.25;;;;;;;29.38;56.35;101491.81;5257133;28;20047;-78
2022/08/13 08:50:49;;;;;;;3.30;2.90;;;;;;;29.75;56.14;101528.31;5239080;28;20029;-79
2022/08/13 08:53:22;;;;;;;4.80;3.58;;;;;;;29.79;54.39;101521.63;5257636;28;20024;-79
2022/08/13 08:55:55;;;;;;;3.63;3.25;;;;;;;29.61;54.80;101491.88;5257241;28;20029;-79
2022/08/13 08:58:26;;;;;;;3.00;2.80;;;;;;;30.04;54.49;101504.56;5259645;28;20028;-81
2022/08/13 09:00:59;;;;;;;1.95;1.85;;;;;;;30.10;53.46;101508.63;5241185;28;20093;-79
2022/08/13 09:03:31;;;;;;;3.53;3.15;;;;;;;30.20;52.79;101514.41;5263134;22;20026;-64
2022/08/13 09:06:01;;;;;;;2.65;2.55;;;;;;;30.18;53.17;101508.38;5250711;28;20025;-64
2022/08/13 09:08:35;;;;;;;2.85;2.75;;;;;;;30.40;54.90;101517.88;5245917;28;20047;-63
2022/08/13 09:11:06;;;;;;;2.13;2.03;;;;;;;30.42;51.26;101515.53;5246482;28;20024;-64
2022/08/13 09:13:37;;;;;;;4.65;2.85;;;;;;;30.57;52.62;101512.97;5245184;28;20031;-64
2022/08/13 09:16:07;;;;;;;3.03;2.83;;;;;;;30.63;51.85;101495.53;5246291;28;20032;-65
2022/08/13 09:18:38;;;;;;;2.60;2.50;;;;;;;30.72;50.24;101504.44;5245947;28;20046;-64
2022/08/13 09:21:09;;;;;;;1.77;1.67;;;;;;;30.83;50.46;101502.59;5244973;28;20028;-64
2022/08/13 09:23:46;;;;;;;2.67;2.47;;;;;;;31.06;50.82;101501.66;5245273;28;20074;-63
2022/08/13 09:26:17;;;;;;;1.55;1.45;;;;;;;31.23;49.15;101498.31;5241922;28;20032;-63
2022/08/13 09:28:49;;;;;;;5.40;2.58;;;;;;;31.29;48.55;101496.78;5264372;28;20055;-64
2022/08/13 09:31:20;;;;;;;1.75;1.65;;;;;;;31.36;50.09;101496.06;5262054;28;20403;-69
2022/08/13 09:33:52;;;;;;;3.13;2.92;;;;;;;31.26;48.95;101491.16;5265699;28;20020;-66
2022/08/13 09:36:24;;;;;;;2.58;2.45;;;;;;;31.41;50.03;101498.50;5248373;28;20031;-65
2022/08/13 09:38:55;;;;;;;2.67;2.47;;;;;;;31.41;47.75;101487.34;5248404;28;20023;-63
2022/08/13 09:41:31;;;;;;;2.10;1.70;;;;;;;31.20;47.98;101485.09;5266712;28;20176;-60
2022/08/13 09:44:02;;;;;;;2.72;2.50;;;;;;;30.99;47.98;101480.06;5265897;28;20019;-62
2022/08/13 09:46:34;;;;;;;2.60;1.67;;;;;;;31.20;48.06;101482.31;5248455;28;20488;-61
2022/08/13 09:49:08;;;;;;;2.85;1.52;;;;;;;31.54;47.75;101478.28;5266598;28;20035;-62
2022/08/13 09:51:38;;;;;;;2.42;2.22;;;;;;;31.35;46.47;101478.50;5267169;28;20051;-62
2022/08/13 09:54:09;;;;;;;3.20;1.70;;;;;;;31.29;46.69;101482.03;5248235;28;20059;-62
2022/08/13 09:56:39;;;;;;;2.45;2.00;;;;;;;31.34;46.07;101490.84;5266873;28;20027;-66
2022/08/13 09:59:11;;;;;;;2.17;2.00;;;;;;;31.38;45.78;101480.53;5248160;28;20047;-63
2022/08/13 10:01:41;;;;;;;3.72;2.15;;;;;;;31.16;45.66;101485.09;5248174;28;20020;-62
2022/08/13 10:04:16;;;;;;;1.40;1.30;;;;;;;31.04;45.54;101484.50;5265549;28;20039;-64
2022/08/13 10:06:48;;;;;;;2.45;2.25;;;;;;;31.21;47.13;101490.31;5248390;28;20031;-66
2022/08/13 10:09:18;;;;;;;2.53;2.33;;;;;;;31.56;45.71;101475.13;5248142;28;20032;-65
2022/08/13 10:11:50;;;;;;;1.92;1.83;;;;;;;31.78;44.97;101471.34;5265912;28;20103;-64
2022/08/13 10:14:21;;;;;;;1.30;1.30;;;;;;;31.95;43.49;101474.69;5266013;28;20181;-64
2022/08/13 10:16:53;;;;;;;1.13;1.13;;;;;;;31.94;41.82;101464.72;5266191;28;20051;-63
2022/08/13 10:19:24;;;;;;;2.42;2.22;;;;;;;32.08;41.00;101462.81;5265729;28;20028;-64
2022/08/13 10:21:54;;;;;;;5.20;1.65;;;;;;;32.22;42.69;101467.72;5266070;28;20098;-64
2022/08/13 10:24:25;;;;;;;1.33;1.25;;;;;;;32.46;42.56;101464.28;5264874;28;20028;-65
2022/08/13 10:26:55;;;;;;;2.47;2.38;;;;;;;32.59;42.07;101461.16;5265647;28;20511;-64
2022/08/13 10:29:26;;;;;;;1.52;1.42;;;;;;;32.47;41.21;101459.50;5247527;28;20023;-64
2022/08/13 10:31:56;;;;;;;1.65;1.55;;;;;;;32.46;42.90;101452.28;5265527;28;20670;-64
2022/08/13 10:34:27;;;;;;;1.48;1.48;;;;;;;32.72;41.75;101454.00;5246723;28;20031;-64
2022/08/13 10:36:59;;;;;;;2.88;1.38;;;;;;;32.98;41.12;101452.94;5265417;28;20453;-65
2022/08/13 10:39:29;;;;;;;1.45;1.30;;;;;;;33.03;40.67;101446.97;5265495;28;20027;-64
2022/08/13 10:42:00;;;;;;;3.55;1.63;;;;;;;32.64;40.96;101441.97;5247148;28;20531;-64
2022/08/13 10:44:31;;;;;;;1.20;1.00;;;;;;;32.59;39.73;101449.97;5264821;28;20024;-65
2022/08/13 10:47:01;;;;;;;1.20;1.15;;;;;;;32.64;38.91;101444.78;5247167;28;20052;-65
2022/08/13 10:49:32;;;;;;;1.17;1.17;;;;;;;32.87;39.63;101439.72;5247149;28;20023;-63
2022/08/13 10:52:03;;;;;;;2.35;1.17;;;;;;;32.97;39.18;101431.75;5265329;28;20024;-63
2022/08/13 10:54:33;;;;;;;1.50;1.25;;;;;;;33.04;40.18;101429.78;5264577;28;20366;-64
2022/08/13 10:57:07;;;;;;;3.58;2.30;;;;;;;33.04;40.35;101434.56;5265239;28;20020;-64
2022/08/13 10:59:38;;;;;;;1.63;1.30;;;;;;;32.99;39.82;101432.94;5264923;28;20148;-64
2022/08/13 11:02:11;;;;;;;1.33;1.30;;;;;;;33.09;40.04;101434.19;5265238;28;20099;-64
2022/08/13 11:04:42;;;;;;;2.58;1.00;;;;;;;32.75;38.79;101409.31;5246157;28;20025;-64
2022/08/13 11:07:12;;;;;;;1.02;1.02;;;;;;;32.85;39.46;101435.72;5246800;28;20093;-64
2022/08/13 11:09:42;;;;;;;2.10;2.00;;;;;;;32.56;39.87;101437.56;5265069;28;20028;-64
2022/08/13 11:12:13;;;;;;;1.58;1.48;;;;;;;32.31;40.92;101451.44;5264777;28;20567;-63
2022/08/13 11:14:45;;;;;;;2.00;1.90;;;;;;;32.37;40.70;101421.88;5264407;28;20035;-63
2022/08/13 11:17:17;;;;;;;1.75;1.42;;;;;;;32.64;40.92;101436.41;5264936;28;20056;-63
2022/08/13 11:19:49;;;;;;;1.92;1.83;;;;;;;32.80;40.01;101438.91;5264870;28;20106;-63
2022/08/13 11:22:20;;;;;;;1.80;1.70;;;;;;;32.77;40.17;101429.28;5247221;28;20024;-63
2022/08/13 11:24:50;;;;;;;1.50;1.48;;;;;;;32.60;41.65;101420.81;5264267;28;20054;-63
2022/08/13 11:27:21;;;;;;;1.95;1.85;;;;;;;32.58;39.96;101420.41;5264964;28;20095;-62
2022/08/13 11:29:53;;;;;;;2.58;1.85;;;;;;;32.59;39.87;101427.59;5265374;28;20023;-63
2022/08/13 11:32:23;;;;;;;1.70;1.65;;;;;;;32.27;40.08;101425.44;5267773;28;20020;-63
2022/08/13 11:34:54;;;;;;;1.52;1.42;;;;;;;31.97;39.89;101425.63;5268624;28;20051;-63
2022/08/13 11:37:25;;;;;;;1.75;1.65;;;;;;;32.08;39.62;101426.47;5269012;28;20039;-67
2022/08/13 11:39:55;;;;;;;1.65;1.55;;;;;;;32.15;39.81;101426.53;5269007;28;20103;-64
2022/08/13 11:42:26;;;;;;;1.10;1.10;;;;;;;32.10;39.21;101417.72;5250956;28;20036;-63
2022/08/13 11:44:56;;;;;;;1.40;1.40;;;;;;;32.19;40.36;101420.97;5268518;28;20482;-62
2022/08/13 11:47:27;;;;;;;1.27;1.15;;;;;;;32.43;39.73;101411.13;5269858;28;20551;-62
2022/08/13 11:49:57;;;;;;;1.90;1.80;;;;;;;32.68;39.38;101414.84;5274032;28;20414;-63
2022/08/13 11:52:27;;;;;;;2.05;1.63;;;;;;;32.65;39.68;101403.63;5272310;28;20102;-63
2022/08/13 11:54:58;;;;;;;3.67;1.25;;;;;;;32.83;38.60;101405.34;5269647;28;20056;-64
2022/08/13 11:57:28;;;;;;;2.08;1.88;;;;;;;32.91;38.70;101410.97;5268608;28;20028;-63
2022/08/13 11:59:59;;;;;;;2.30;2.10;;;;;;;32.50;38.58;101408.38;5268475;28;20028;-63
2022/08/13 12:02:29;;;;;;;2.17;2.08;;;;;;;32.27;40.07;101402.28;5250052;28;20035;-63
2022/08/13 12:05:00;;;;;;;1.92;1.83;;;;;;;32.53;40.06;101402.81;5267816;28;20070;-64
2022/08/13 12:07:30;;;;;;;1.73;1.63;;;;;;;32.80;40.09;101400.53;5268519;28;20028;-63